sensor_id;sensor_type;location;lat;lon;timestamp;P1;durP1;ratioP1;P2;durP2;ratioP2
39982;SDS011;25670;44.782;10.356;2023-02-04T00:01:01;69.18;;;31.38;;
39982;SDS011;25670;44.782;10.356;2023-02-04T00:03:27;78.60;;;30.65;;
39982;SDS011;25670;44.782;10.356;2023-02-04T00:05:54;82.05;;;30.38;;
39982;SDS011;25670;44.782;10.356;2023-02-04T00:08:20;79.97;;;32.35;;
39982;SDS011;25670;44.782;10.356;2023-02-04T00:10:47;74.60;;;31.45;;
39982;SDS011;25670;44.782;10.356;2023-02-04T00:13:13;81.22;;;32.63;;
39982;SDS011;25670;44.782;10.356;2023-02-04T00:15:40;86.40;;;33.95;;
39982;SDS011;25670;44.782;10.356;2023-02-04T00:18:06;81.38;;;34.17;;
39982;SDS011;25670;44.782;10.356;2023-02-04T00:20:34;77.22;;;32.00;;
39982;SDS011;25670;44.782;10.356;2023-02-04T00:23:00;84.13;;;35.25;;
39982;SDS011;25670;44.782;10.356;2023-02-04T00:25:27;85.45;;;35.42;;
39982;SDS011;25670;44.782;10.356;2023-02-04T00:27:53;88.88;;;35.65;;
39982;SDS011;25670;44.782;10.356;2023-02-04T00:30:20;91.63;;;37.63;;
39982;SDS011;25670;44.782;10.356;2023-02-04T00:32:46;95.00;;;35.50;;
39982;SDS011;25670;44.782;10.356;2023-02-04T00:35:13;90.07;;;35.92;;
39982;SDS011;25670;44.782;10.356;2023-02-04T00:37:40;91.35;;;35.72;;
39982;SDS011;25670;44.782;10.356;2023-02-04T00:40:07;79.55;;;32.28;;
39982;SDS011;25670;44.782;10.356;2023-02-04T00:42:34;90.50;;;34.78;;
39982;SDS011;25670;44.782;10.356;2023-02-04T00:45:01;88.32;;;34.22;;
39982;SDS011;25670;44.782;10.356;2023-02-04T00:47:27;93.78;;;38.00;;
39982;SDS011;25670;44.782;10.356;2023-02-04T00:49:55;97.18;;;36.88;;
39982;SDS011;25670;44.782;10.356;2023-02-04T00:52:21;92.25;;;36.70;;
39982;SDS011;25670;44.782;10.356;2023-02-04T00:54:48;91.32;;;38.08;;
39982;SDS011;25670;44.782;10.356;2023-02-04T00:57:15;111.28;;;39.97;;
39982;SDS011;25670;44.782;10.356;2023-02-04T00:59:41;94.07;;;37.60;;
39982;SDS011;25670;44.782;10.356;2023-02-04T01:02:08;109.22;;;40.45;;
39982;SDS011;25670;44.782;10.356;2023-02-04T01:04:34;97.63;;;38.50;;
39982;SDS011;25670;44.782;10.356;2023-02-04T01:07:01;102.80;;;37.38;;
39982;SDS011;25670;44.782;10.356;2023-02-04T01:09:27;101.40;;;39.15;;
39982;SDS011;25670;44.782;10.356;2023-02-04T01:11:54;106.85;;;39.17;;
39982;SDS011;25670;44.782;10.356;2023-02-04T01:14:20;101.13;;;38.80;;
39982;SDS011;25670;44.782;10.356;2023-02-04T01:16:46;93.18;;;39.05;;
39982;SDS011;25670;44.782;10.356;2023-02-04T01:19:13;105.43;;;40.83;;
39982;SDS011;25670;44.782;10.356;2023-02-04T01:21:39;104.25;;;39.35;;
39982;SDS011;25670;44.782;10.356;2023-02-04T01:24:06;99.53;;;37.38;;
39982;SDS011;25670;44.782;10.356;2023-02-04T01:26:52;92.45;;;38.88;;
39982;SDS011;25670;44.782;10.356;2023-02-04T01:29:19;99.30;;;37.63;;
39982;SDS011;25670;44.782;10.356;2023-02-04T01:31:45;99.95;;;38.20;;
39982;SDS011;25670;44.782;10.356;2023-02-04T01:34:12;91.25;;;36.25;;
39982;SDS011;25670;44.782;10.356;2023-02-04T01:36:38;89.82;;;36.20;;
39982;SDS011;25670;44.782;10.356;2023-02-04T01:39:05;83.22;;;34.88;;
39982;SDS011;25670;44.782;10.356;2023-02-04T01:41:31;85.93;;;36.28;;
39982;SDS011;25670;44.782;10.356;2023-02-04T01:43:58;92.63;;;36.30;;
39982;SDS011;25670;44.782;10.356;2023-02-04T01:46:24;91.22;;;35.88;;
39982;SDS011;25670;44.782;10.356;2023-02-04T01:48:51;87.75;;;35.63;;
39982;SDS011;25670;44.782;10.356;2023-02-04T01:51:22;92.22;;;36.55;;
39982;SDS011;25670;44.782;10.356;2023-02-04T01:53:53;83.75;;;35.20;;
39982;SDS011;25670;44.782;10.356;2023-02-04T01:56:21;96.75;;;37.78;;
39982;SDS011;25670;44.782;10.356;2023-02-04T01:58:51;82.28;;;34.85;;
39982;SDS011;25670;44.782;10.356;2023-02-04T02:01:32;101.97;;;36.50;;
39982;SDS011;25670;44.782;10.356;2023-02-04T02:04:00;97.10;;;35.55;;
39982;SDS011;25670;44.782;10.356;2023-02-04T02:06:27;87.10;;;35.55;;
39982;SDS011;25670;44.782;10.356;2023-02-04T02:08:54;87.22;;;34.75;;
39982;SDS011;25670;44.782;10.356;2023-02-04T02:11:21;93.78;;;36.58;;
39982;SDS011;25670;44.782;10.356;2023-02-04T02:13:47;86.18;;;36.22;;
39982;SDS011;25670;44.782;10.356;2023-02-04T02:16:14;87.03;;;35.42;;
39982;SDS011;25670;44.782;10.356;2023-02-04T02:18:40;90.43;;;33.70;;
39982;SDS011;25670;44.782;10.356;2023-02-04T02:21:07;88.70;;;36.17;;
39982;SDS011;25670;44.782;10.356;2023-02-04T02:26:08;81.35;;;33.60;;
39982;SDS011;25670;44.782;10.356;2023-02-04T02:28:35;83.03;;;33.28;;
39982;SDS011;25670;44.782;10.356;2023-02-04T02:31:01;78.72;;;32.70;;
39982;SDS011;25670;44.782;10.356;2023-02-04T02:33:28;96.65;;;38.08;;
39982;SDS011;25670;44.782;10.356;2023-02-04T02:35:54;89.13;;;36.13;;
39982;SDS011;25670;44.782;10.356;2023-02-04T02:38:23;84.43;;;34.13;;
39982;SDS011;25670;44.782;10.356;2023-02-04T02:40:50;93.45;;;36.17;;
39982;SDS011;25670;44.782;10.356;2023-02-04T02:43:18;87.18;;;36.38;;
39982;SDS011;25670;44.782;10.356;2023-02-04T02:45:47;92.50;;;35.38;;
39982;SDS011;25670;44.782;10.356;2023-02-04T02:48:14;98.60;;;37.35;;
39982;SDS011;25670;44.782;10.356;2023-02-04T02:50:41;82.97;;;33.38;;
39982;SDS011;25670;44.782;10.356;2023-02-04T02:53:12;84.28;;;34.60;;
39982;SDS011;25670;44.782;10.356;2023-02-04T02:55:41;91.93;;;35.80;;
39982;SDS011;25670;44.782;10.356;2023-02-04T02:58:10;81.38;;;32.40;;
39982;SDS011;25670;44.782;10.356;2023-02-04T03:00:45;87.13;;;35.22;;
39982;SDS011;25670;44.782;10.356;2023-02-04T03:03:14;87.85;;;33.88;;
39982;SDS011;25670;44.782;10.356;2023-02-04T03:05:45;81.80;;;32.60;;
39982;SDS011;25670;44.782;10.356;2023-02-04T03:08:15;78.03;;;32.08;;
39982;SDS011;25670;44.782;10.356;2023-02-04T03:10:43;72.43;;;32.25;;
39982;SDS011;25670;44.782;10.356;2023-02-04T03:13:11;82.45;;;32.40;;
39982;SDS011;25670;44.782;10.356;2023-02-04T03:15:40;77.57;;;31.45;;
39982;SDS011;25670;44.782;10.356;2023-02-04T03:18:08;89.40;;;33.13;;
39982;SDS011;25670;44.782;10.356;2023-02-04T03:20:36;78.07;;;31.73;;
39982;SDS011;25670;44.782;10.356;2023-02-04T03:23:03;76.68;;;32.80;;
39982;SDS011;25670;44.782;10.356;2023-02-04T03:25:29;79.05;;;32.28;;
39982;SDS011;25670;44.782;10.356;2023-02-04T03:27:57;75.05;;;30.83;;
39982;SDS011;25670;44.782;10.356;2023-02-04T03:30:24;72.75;;;30.88;;
39982;SDS011;25670;44.782;10.356;2023-02-04T03:32:51;78.22;;;32.20;;
39982;SDS011;25670;44.782;10.356;2023-02-04T03:35:18;75.97;;;32.50;;
39982;SDS011;25670;44.782;10.356;2023-02-04T03:37:45;73.15;;;31.15;;
39982;SDS011;25670;44.782;10.356;2023-02-04T03:40:12;82.68;;;31.80;;
39982;SDS011;25670;44.782;10.356;2023-02-04T03:42:38;82.72;;;31.60;;
39982;SDS011;25670;44.782;10.356;2023-02-04T03:45:05;84.05;;;32.40;;
39982;SDS011;25670;44.782;10.356;2023-02-04T03:47:31;76.90;;;32.78;;
39982;SDS011;25670;44.782;10.356;2023-02-04T03:49:58;79.47;;;31.55;;
39982;SDS011;25670;44.782;10.356;2023-02-04T03:52:25;82.90;;;31.40;;
39982;SDS011;25670;44.782;10.356;2023-02-04T03:54:51;74.57;;;32.22;;
39982;SDS011;25670;44.782;10.356;2023-02-04T03:57:18;83.95;;;34.58;;
39982;SDS011;25670;44.782;10.356;2023-02-04T03:59:44;81.70;;;33.80;;
39982;SDS011;25670;44.782;10.356;2023-02-04T04:02:11;79.03;;;31.42;;
39982;SDS011;25670;44.782;10.356;2023-02-04T04:04:37;79.72;;;31.73;;
39982;SDS011;25670;44.782;10.356;2023-02-04T04:07:04;67.65;;;30.65;;
39982;SDS011;25670;44.782;10.356;2023-02-04T04:09:31;88.45;;;35.17;;
39982;SDS011;25670;44.782;10.356;2023-02-04T04:11:57;78.57;;;32.22;;
39982;SDS011;25670;44.782;10.356;2023-02-04T04:14:24;78.60;;;32.15;;
39982;SDS011;25670;44.782;10.356;2023-02-04T04:16:50;78.55;;;33.65;;
39982;SDS011;25670;44.782;10.356;2023-02-04T04:19:17;80.63;;;33.28;;
39982;SDS011;25670;44.782;10.356;2023-02-04T04:21:43;82.55;;;35.53;;
39982;SDS011;25670;44.782;10.356;2023-02-04T04:24:10;78.43;;;31.08;;
39982;SDS011;25670;44.782;10.356;2023-02-04T04:26:36;76.20;;;29.58;;
39982;SDS011;25670;44.782;10.356;2023-02-04T04:29:03;72.30;;;30.23;;
39982;SDS011;25670;44.782;10.356;2023-02-04T04:31:29;75.65;;;31.88;;
39982;SDS011;25670;44.782;10.356;2023-02-04T04:33:55;71.78;;;30.73;;
39982;SDS011;25670;44.782;10.356;2023-02-04T04:36:22;72.22;;;31.27;;
39982;SDS011;25670;44.782;10.356;2023-02-04T04:38:49;77.85;;;30.70;;
39982;SDS011;25670;44.782;10.356;2023-02-04T04:41:15;68.90;;;28.13;;
39982;SDS011;25670;44.782;10.356;2023-02-04T04:43:42;75.43;;;31.52;;
39982;SDS011;25670;44.782;10.356;2023-02-04T04:46:08;73.93;;;30.65;;
39982;SDS011;25670;44.782;10.356;2023-02-04T04:48:35;75.75;;;30.55;;
39982;SDS011;25670;44.782;10.356;2023-02-04T04:51:01;73.45;;;28.92;;
39982;SDS011;25670;44.782;10.356;2023-02-04T04:53:28;83.38;;;29.65;;
39982;SDS011;25670;44.782;10.356;2023-02-04T04:55:56;70.28;;;30.05;;
39982;SDS011;25670;44.782;10.356;2023-02-04T04:58:22;75.50;;;28.05;;
39982;SDS011;25670;44.782;10.356;2023-02-04T05:00:49;70.43;;;28.83;;
39982;SDS011;25670;44.782;10.356;2023-02-04T05:03:15;64.50;;;27.23;;
39982;SDS011;25670;44.782;10.356;2023-02-04T05:05:41;65.00;;;28.00;;
39982;SDS011;25670;44.782;10.356;2023-02-04T05:08:08;66.05;;;27.15;;
39982;SDS011;25670;44.782;10.356;2023-02-04T05:10:38;67.55;;;27.08;;
39982;SDS011;25670;44.782;10.356;2023-02-04T05:13:05;67.50;;;26.08;;
39982;SDS011;25670;44.782;10.356;2023-02-04T05:15:31;65.60;;;27.05;;
39982;SDS011;25670;44.782;10.356;2023-02-04T05:17:58;68.40;;;27.13;;
39982;SDS011;25670;44.782;10.356;2023-02-04T05:20:24;62.65;;;26.73;;
39982;SDS011;25670;44.782;10.356;2023-02-04T05:22:51;71.50;;;26.20;;
39982;SDS011;25670;44.782;10.356;2023-02-04T05:25:17;62.22;;;26.23;;
39982;SDS011;25670;44.782;10.356;2023-02-04T05:27:44;53.60;;;24.67;;
39982;SDS011;25670;44.782;10.356;2023-02-04T05:30:11;65.10;;;25.42;;
39982;SDS011;25670;44.782;10.356;2023-02-04T05:32:38;60.85;;;24.33;;
39982;SDS011;25670;44.782;10.356;2023-02-04T05:35:05;57.13;;;23.90;;
39982;SDS011;25670;44.782;10.356;2023-02-04T05:37:31;55.15;;;24.13;;
39982;SDS011;25670;44.782;10.356;2023-02-04T05:39:57;61.47;;;25.38;;
39982;SDS011;25670;44.782;10.356;2023-02-04T05:42:23;63.58;;;23.58;;
39982;SDS011;25670;44.782;10.356;2023-02-04T05:44:50;48.83;;;23.02;;
39982;SDS011;25670;44.782;10.356;2023-02-04T05:47:16;51.17;;;23.40;;
39982;SDS011;25670;44.782;10.356;2023-02-04T05:49:45;47.35;;;22.42;;
39982;SDS011;25670;44.782;10.356;2023-02-04T05:52:11;58.13;;;24.35;;
39982;SDS011;25670;44.782;10.356;2023-02-04T05:54:37;52.08;;;22.15;;
39982;SDS011;25670;44.782;10.356;2023-02-04T05:57:04;46.30;;;21.60;;
39982;SDS011;25670;44.782;10.356;2023-02-04T05:59:30;54.05;;;23.25;;
39982;SDS011;25670;44.782;10.356;2023-02-04T06:01:57;51.70;;;21.38;;
39982;SDS011;25670;44.782;10.356;2023-02-04T06:04:23;43.03;;;22.08;;
39982;SDS011;25670;44.782;10.356;2023-02-04T06:06:50;47.25;;;22.15;;
39982;SDS011;25670;44.782;10.356;2023-02-04T06:09:16;46.58;;;21.35;;
39982;SDS011;25670;44.782;10.356;2023-02-04T06:11:42;53.00;;;22.85;;
39982;SDS011;25670;44.782;10.356;2023-02-04T06:14:10;49.55;;;22.83;;
39982;SDS011;25670;44.782;10.356;2023-02-04T06:16:36;52.15;;;20.33;;
39982;SDS011;25670;44.782;10.356;2023-02-04T06:19:02;40.15;;;20.60;;
39982;SDS011;25670;44.782;10.356;2023-02-04T06:21:29;41.78;;;20.20;;
39982;SDS011;25670;44.782;10.356;2023-02-04T06:23:56;38.28;;;20.33;;
39982;SDS011;25670;44.782;10.356;2023-02-04T06:26:22;53.33;;;21.05;;
39982;SDS011;25670;44.782;10.356;2023-02-04T06:28:49;53.70;;;21.95;;
39982;SDS011;25670;44.782;10.356;2023-02-04T06:31:15;47.78;;;21.75;;
39982;SDS011;25670;44.782;10.356;2023-02-04T06:33:42;45.95;;;21.77;;
39982;SDS011;25670;44.782;10.356;2023-02-04T06:36:08;40.03;;;20.65;;
39982;SDS011;25670;44.782;10.356;2023-02-04T06:38:35;44.67;;;20.90;;
39982;SDS011;25670;44.782;10.356;2023-02-04T06:41:01;42.67;;;19.38;;
39982;SDS011;25670;44.782;10.356;2023-02-04T06:43:27;43.72;;;20.88;;
39982;SDS011;25670;44.782;10.356;2023-02-04T06:45:54;45.70;;;20.75;;
39982;SDS011;25670;44.782;10.356;2023-02-04T06:48:20;40.45;;;20.25;;
39982;SDS011;25670;44.782;10.356;2023-02-04T06:50:47;44.97;;;21.73;;
39982;SDS011;25670;44.782;10.356;2023-02-04T06:53:13;49.53;;;21.80;;
39982;SDS011;25670;44.782;10.356;2023-02-04T06:55:40;47.03;;;20.30;;
39982;SDS011;25670;44.782;10.356;2023-02-04T06:58:07;42.17;;;20.50;;
39982;SDS011;25670;44.782;10.356;2023-02-04T07:00:34;41.45;;;19.98;;
39982;SDS011;25670;44.782;10.356;2023-02-04T07:03:00;47.00;;;21.05;;
39982;SDS011;25670;44.782;10.356;2023-02-04T07:05:27;49.03;;;22.13;;
39982;SDS011;25670;44.782;10.356;2023-02-04T07:07:53;39.78;;;20.65;;
39982;SDS011;25670;44.782;10.356;2023-02-04T07:10:20;44.65;;;20.00;;
39982;SDS011;25670;44.782;10.356;2023-02-04T07:12:46;44.70;;;20.40;;
39982;SDS011;25670;44.782;10.356;2023-02-04T07:15:13;43.33;;;19.30;;
39982;SDS011;25670;44.782;10.356;2023-02-04T07:17:39;49.30;;;20.33;;
39982;SDS011;25670;44.782;10.356;2023-02-04T07:20:06;41.05;;;19.05;;
39982;SDS011;25670;44.782;10.356;2023-02-04T07:22:33;38.75;;;18.52;;
39982;SDS011;25670;44.782;10.356;2023-02-04T07:25:00;43.95;;;18.38;;
39982;SDS011;25670;44.782;10.356;2023-02-04T07:27:27;34.17;;;17.70;;
39982;SDS011;25670;44.782;10.356;2023-02-04T07:29:53;42.47;;;19.17;;
39982;SDS011;25670;44.782;10.356;2023-02-04T07:32:19;43.35;;;17.77;;
39982;SDS011;25670;44.782;10.356;2023-02-04T07:34:46;43.00;;;18.90;;
39982;SDS011;25670;44.782;10.356;2023-02-04T07:37:13;34.70;;;17.23;;
39982;SDS011;25670;44.782;10.356;2023-02-04T07:39:39;44.38;;;16.95;;
39982;SDS011;25670;44.782;10.356;2023-02-04T07:42:06;40.90;;;16.83;;
39982;SDS011;25670;44.782;10.356;2023-02-04T07:44:42;28.63;;;16.33;;
39982;SDS011;25670;44.782;10.356;2023-02-04T07:47:08;33.47;;;17.35;;
39982;SDS011;25670;44.782;10.356;2023-02-04T07:49:34;34.55;;;16.13;;
39982;SDS011;25670;44.782;10.356;2023-02-04T07:52:01;33.03;;;16.00;;
39982;SDS011;25670;44.782;10.356;2023-02-04T07:54:27;38.50;;;16.98;;
39982;SDS011;25670;44.782;10.356;2023-02-04T07:56:54;31.30;;;15.63;;
39982;SDS011;25670;44.782;10.356;2023-02-04T07:59:20;27.90;;;15.07;;
39982;SDS011;25670;44.782;10.356;2023-02-04T08:01:47;30.75;;;15.55;;
39982;SDS011;25670;44.782;10.356;2023-02-04T08:04:14;39.22;;;14.00;;
39982;SDS011;25670;44.782;10.356;2023-02-04T08:06:40;25.00;;;14.80;;
39982;SDS011;25670;44.782;10.356;2023-02-04T08:09:07;21.83;;;14.15;;
39982;SDS011;25670;44.782;10.356;2023-02-04T08:11:33;26.80;;;14.18;;
39982;SDS011;25670;44.782;10.356;2023-02-04T08:13:59;31.23;;;13.48;;
39982;SDS011;25670;44.782;10.356;2023-02-04T08:16:26;24.27;;;14.23;;
39982;SDS011;25670;44.782;10.356;2023-02-04T08:18:52;20.85;;;13.55;;
39982;SDS011;25670;44.782;10.356;2023-02-04T08:21:19;21.65;;;13.23;;
39982;SDS011;25670;44.782;10.356;2023-02-04T08:23:45;23.33;;;12.52;;
39982;SDS011;25670;44.782;10.356;2023-02-04T08:26:12;20.73;;;13.20;;
39982;SDS011;25670;44.782;10.356;2023-02-04T08:28:38;22.63;;;11.65;;
39982;SDS011;25670;44.782;10.356;2023-02-04T08:31:05;19.52;;;11.90;;
39982;SDS011;25670;44.782;10.356;2023-02-04T08:33:31;23.02;;;11.85;;
39982;SDS011;25670;44.782;10.356;2023-02-04T08:35:58;19.48;;;10.68;;
39982;SDS011;25670;44.782;10.356;2023-02-04T08:38:25;19.73;;;12.20;;
39982;SDS011;25670;44.782;10.356;2023-02-04T08:40:51;21.40;;;11.57;;
39982;SDS011;25670;44.782;10.356;2023-02-04T08:43:17;13.88;;;10.10;;
39982;SDS011;25670;44.782;10.356;2023-02-04T08:45:44;15.70;;;10.60;;
39982;SDS011;25670;44.782;10.356;2023-02-04T08:48:10;23.80;;;10.38;;
39982;SDS011;25670;44.782;10.356;2023-02-04T08:50:36;21.65;;;10.00;;
39982;SDS011;25670;44.782;10.356;2023-02-04T08:53:02;13.38;;;8.85;;
39982;SDS011;25670;44.782;10.356;2023-02-04T08:55:29;14.70;;;8.30;;
39982;SDS011;25670;44.782;10.356;2023-02-04T08:57:55;13.60;;;9.02;;
39982;SDS011;25670;44.782;10.356;2023-02-04T09:00:23;19.13;;;9.32;;
39982;SDS011;25670;44.782;10.356;2023-02-04T09:02:50;11.75;;;7.43;;
39982;SDS011;25670;44.782;10.356;2023-02-04T09:05:16;9.00;;;7.25;;
39982;SDS011;25670;44.782;10.356;2023-02-04T09:07:42;11.88;;;8.02;;
39982;SDS011;25670;44.782;10.356;2023-02-04T09:10:08;8.05;;;6.78;;
39982;SDS011;25670;44.782;10.356;2023-02-04T09:12:35;10.95;;;7.22;;
39982;SDS011;25670;44.782;10.356;2023-02-04T09:15:01;8.57;;;7.47;;
39982;SDS011;25670;44.782;10.356;2023-02-04T09:17:27;11.48;;;7.10;;
39982;SDS011;25670;44.782;10.356;2023-02-04T09:19:53;12.38;;;7.53;;
39982;SDS011;25670;44.782;10.356;2023-02-04T09:22:20;11.93;;;8.13;;
39982;SDS011;25670;44.782;10.356;2023-02-04T09:24:46;14.43;;;9.00;;
39982;SDS011;25670;44.782;10.356;2023-02-04T09:27:12;21.55;;;11.32;;
39982;SDS011;25670;44.782;10.356;2023-02-04T09:29:38;17.20;;;10.55;;
39982;SDS011;25670;44.782;10.356;2023-02-04T09:32:05;14.25;;;11.07;;
39982;SDS011;25670;44.782;10.356;2023-02-04T09:34:31;16.90;;;10.07;;
39982;SDS011;25670;44.782;10.356;2023-02-04T09:36:58;15.10;;;9.90;;
39982;SDS011;25670;44.782;10.356;2023-02-04T09:39:24;16.17;;;10.45;;
39982;SDS011;25670;44.782;10.356;2023-02-04T09:41:50;13.82;;;10.43;;
39982;SDS011;25670;44.782;10.356;2023-02-04T09:44:19;19.85;;;9.82;;
39982;SDS011;25670;44.782;10.356;2023-02-04T09:46:49;14.50;;;10.32;;
39982;SDS011;25670;44.782;10.356;2023-02-04T09:49:30;19.25;;;11.35;;
39982;SDS011;25670;44.782;10.356;2023-02-04T09:51:57;17.27;;;11.25;;
39982;SDS011;25670;44.782;10.356;2023-02-04T09:54:24;19.50;;;12.02;;
39982;SDS011;25670;44.782;10.356;2023-02-04T09:56:50;14.77;;;10.57;;
39982;SDS011;25670;44.782;10.356;2023-02-04T09:59:18;13.93;;;10.02;;
39982;SDS011;25670;44.782;10.356;2023-02-04T10:01:58;13.93;;;10.63;;
39982;SDS011;25670;44.782;10.356;2023-02-04T10:04:26;19.38;;;9.98;;
39982;SDS011;25670;44.782;10.356;2023-02-04T10:06:54;15.30;;;9.55;;
39982;SDS011;25670;44.782;10.356;2023-02-04T10:09:23;14.60;;;8.43;;
39982;SDS011;25670;44.782;10.356;2023-02-04T10:11:52;10.07;;;9.15;;
39982;SDS011;25670;44.782;10.356;2023-02-04T10:14:19;18.77;;;9.65;;
39982;SDS011;25670;44.782;10.356;2023-02-04T10:16:50;12.82;;;9.23;;
39982;SDS011;25670;44.782;10.356;2023-02-04T10:19:19;11.02;;;9.10;;
39982;SDS011;25670;44.782;10.356;2023-02-04T10:21:46;16.63;;;9.10;;
39982;SDS011;25670;44.782;10.356;2023-02-04T10:24:16;13.90;;;8.73;;
39982;SDS011;25670;44.782;10.356;2023-02-04T10:26:45;21.65;;;10.05;;
39982;SDS011;25670;44.782;10.356;2023-02-04T10:29:15;15.77;;;10.68;;
39982;SDS011;25670;44.782;10.356;2023-02-04T10:31:44;15.02;;;9.73;;
39982;SDS011;25670;44.782;10.356;2023-02-04T10:36:49;15.38;;;8.88;;
39982;SDS011;25670;44.782;10.356;2023-02-04T10:39:21;14.90;;;9.40;;
39982;SDS011;25670;44.782;10.356;2023-02-04T10:41:57;11.82;;;9.27;;
39982;SDS011;25670;44.782;10.356;2023-02-04T10:46:58;14.48;;;9.75;;
39982;SDS011;25670;44.782;10.356;2023-02-04T10:49:28;12.25;;;8.70;;
39982;SDS011;25670;44.782;10.356;2023-02-04T10:51:55;13.60;;;10.07;;
39982;SDS011;25670;44.782;10.356;2023-02-04T10:54:24;13.65;;;9.57;;
39982;SDS011;25670;44.782;10.356;2023-02-04T10:57:45;20.17;;;10.05;;
39982;SDS011;25670;44.782;10.356;2023-02-04T10:59:52;14.05;;;9.85;;
39982;SDS011;25670;44.782;10.356;2023-02-04T11:05:05;18.70;;;10.77;;
39982;SDS011;25670;44.782;10.356;2023-02-04T11:07:44;12.80;;;9.98;;
39982;SDS011;25670;44.782;10.356;2023-02-04T11:10:12;12.45;;;10.10;;
39982;SDS011;25670;44.782;10.356;2023-02-04T11:12:45;17.38;;;10.73;;
39982;SDS011;25670;44.782;10.356;2023-02-04T11:20:50;13.80;;;10.25;;
39982;SDS011;25670;44.782;10.356;2023-02-04T11:26:02;22.15;;;9.90;;
39982;SDS011;25670;44.782;10.356;2023-02-04T11:28:46;20.13;;;11.55;;
39982;SDS011;25670;44.782;10.356;2023-02-04T11:33:45;17.48;;;11.20;;
39982;SDS011;25670;44.782;10.356;2023-02-04T11:36:12;17.42;;;11.30;;
39982;SDS011;25670;44.782;10.356;2023-02-04T11:38:44;16.45;;;10.77;;
39982;SDS011;25670;44.782;10.356;2023-02-04T11:41:25;17.75;;;10.45;;
39982;SDS011;25670;44.782;10.356;2023-02-04T11:43:56;24.23;;;11.43;;
39982;SDS011;25670;44.782;10.356;2023-02-04T11:46:23;14.18;;;10.80;;
39982;SDS011;25670;44.782;10.356;2023-02-04T11:48:51;16.08;;;10.40;;
39982;SDS011;25670;44.782;10.356;2023-02-04T11:51:19;17.88;;;8.80;;
39982;SDS011;25670;44.782;10.356;2023-02-04T11:53:58;13.05;;;8.60;;
39982;SDS011;25670;44.782;10.356;2023-02-04T11:56:26;12.02;;;7.63;;
39982;SDS011;25670;44.782;10.356;2023-02-04T11:58:55;9.65;;;6.60;;
39982;SDS011;25670;44.782;10.356;2023-02-04T12:01:23;6.45;;;5.72;;
39982;SDS011;25670;44.782;10.356;2023-02-04T12:03:59;8.77;;;6.28;;
39982;SDS011;25670;44.782;10.356;2023-02-04T12:06:31;8.88;;;5.72;;
39982;SDS011;25670;44.782;10.356;2023-02-04T12:09:06;9.27;;;6.63;;
39982;SDS011;25670;44.782;10.356;2023-02-04T12:11:32;10.57;;;6.95;;
39982;SDS011;25670;44.782;10.356;2023-02-04T12:14:09;10.48;;;7.07;;
39982;SDS011;25670;44.782;10.356;2023-02-04T12:16:46;11.57;;;7.38;;
39982;SDS011;25670;44.782;10.356;2023-02-04T12:19:14;8.13;;;6.63;;
39982;SDS011;25670;44.782;10.356;2023-02-04T12:21:40;7.75;;;6.38;;
39982;SDS011;25670;44.782;10.356;2023-02-04T12:24:06;8.52;;;7.13;;
39982;SDS011;25670;44.782;10.356;2023-02-04T12:26:33;16.52;;;6.80;;
39982;SDS011;25670;44.782;10.356;2023-02-04T12:28:59;14.98;;;8.30;;
39982;SDS011;25670;44.782;10.356;2023-02-04T12:31:28;9.10;;;8.20;;
39982;SDS011;25670;44.782;10.356;2023-02-04T12:33:54;11.25;;;8.38;;
39982;SDS011;25670;44.782;10.356;2023-02-04T12:36:21;16.08;;;8.90;;
39982;SDS011;25670;44.782;10.356;2023-02-04T12:38:47;15.68;;;8.32;;
39982;SDS011;25670;44.782;10.356;2023-02-04T12:41:13;14.80;;;8.98;;
39982;SDS011;25670;44.782;10.356;2023-02-04T12:43:40;9.95;;;8.10;;
39982;SDS011;25670;44.782;10.356;2023-02-04T12:46:06;9.50;;;8.60;;
39982;SDS011;25670;44.782;10.356;2023-02-04T12:48:32;13.85;;;9.38;;
39982;SDS011;25670;44.782;10.356;2023-02-04T12:50:58;18.17;;;8.60;;
39982;SDS011;25670;44.782;10.356;2023-02-04T12:53:25;13.93;;;8.88;;
39982;SDS011;25670;44.782;10.356;2023-02-04T12:55:51;13.10;;;9.50;;
39982;SDS011;25670;44.782;10.356;2023-02-04T12:58:17;14.18;;;9.90;;
39982;SDS011;25670;44.782;10.356;2023-02-04T13:00:43;11.77;;;9.15;;
39982;SDS011;25670;44.782;10.356;2023-02-04T13:03:09;10.25;;;9.45;;
39982;SDS011;25670;44.782;10.356;2023-02-04T13:05:36;13.40;;;9.63;;
39982;SDS011;25670;44.782;10.356;2023-02-04T13:08:02;11.88;;;9.57;;
39982;SDS011;25670;44.782;10.356;2023-02-04T13:10:28;10.90;;;9.80;;
39982;SDS011;25670;44.782;10.356;2023-02-04T13:12:55;12.38;;;9.38;;
39982;SDS011;25670;44.782;10.356;2023-02-04T13:15:21;10.82;;;9.73;;
39982;SDS011;25670;44.782;10.356;2023-02-04T13:17:47;10.52;;;9.60;;
39982;SDS011;25670;44.782;10.356;2023-02-04T13:20:14;13.65;;;10.98;;
39982;SDS011;25670;44.782;10.356;2023-02-04T13:22:40;17.27;;;11.93;;
39982;SDS011;25670;44.782;10.356;2023-02-04T13:25:06;11.75;;;10.65;;
39982;SDS011;25670;44.782;10.356;2023-02-04T13:27:34;11.48;;;10.27;;
39982;SDS011;25670;44.782;10.356;2023-02-04T13:30:01;13.70;;;10.30;;
39982;SDS011;25670;44.782;10.356;2023-02-04T13:32:27;16.60;;;11.57;;
39982;SDS011;25670;44.782;10.356;2023-02-04T13:34:53;16.55;;;10.48;;
39982;SDS011;25670;44.782;10.356;2023-02-04T13:37:19;14.93;;;10.95;;
39982;SDS011;25670;44.782;10.356;2023-02-04T13:39:45;12.57;;;10.30;;
39982;SDS011;25670;44.782;10.356;2023-02-04T13:42:15;10.98;;;9.82;;
39982;SDS011;25670;44.782;10.356;2023-02-04T13:44:41;14.27;;;11.05;;
39982;SDS011;25670;44.782;10.356;2023-02-04T13:47:07;13.90;;;11.80;;
39982;SDS011;25670;44.782;10.356;2023-02-04T13:49:34;13.75;;;11.57;;
39982;SDS011;25670;44.782;10.356;2023-02-04T13:52:00;15.65;;;10.90;;
39982;SDS011;25670;44.782;10.356;2023-02-04T13:54:26;11.20;;;10.10;;
39982;SDS011;25670;44.782;10.356;2023-02-04T13:56:52;11.90;;;10.55;;
39982;SDS011;25670;44.782;10.356;2023-02-04T13:59:19;12.18;;;11.07;;
39982;SDS011;25670;44.782;10.356;2023-02-04T14:01:45;12.63;;;10.80;;
39982;SDS011;25670;44.782;10.356;2023-02-04T14:04:11;12.15;;;10.80;;
39982;SDS011;25670;44.782;10.356;2023-02-04T14:06:37;18.98;;;12.00;;
39982;SDS011;25670;44.782;10.356;2023-02-04T14:09:08;14.33;;;11.83;;
39982;SDS011;25670;44.782;10.356;2023-02-04T14:11:36;12.65;;;10.90;;
39982;SDS011;25670;44.782;10.356;2023-02-04T14:14:03;13.10;;;10.88;;
39982;SDS011;25670;44.782;10.356;2023-02-04T14:16:29;12.75;;;10.18;;
39982;SDS011;25670;44.782;10.356;2023-02-04T14:18:55;15.13;;;10.40;;
39982;SDS011;25670;44.782;10.356;2023-02-04T14:21:22;11.95;;;10.10;;
39982;SDS011;25670;44.782;10.356;2023-02-04T14:23:48;11.80;;;10.70;;
39982;SDS011;25670;44.782;10.356;2023-02-04T14:26:14;12.35;;;9.95;;
39982;SDS011;25670;44.782;10.356;2023-02-04T14:28:40;11.73;;;9.27;;
39982;SDS011;25670;44.782;10.356;2023-02-04T14:31:07;9.85;;;9.05;;
39982;SDS011;25670;44.782;10.356;2023-02-04T14:33:33;11.95;;;9.60;;